To NAV CANADA Home Page Login to a new session Search on AWWS site Feedback and Comments Disclaimer Vers la page française équivalente Tips FAQ What's new on the site To the Forecasts and Observations / NOTAM section To "File a Flight Plan" website Publications and other links Update of the User's profile FIC Telephone Numbers My Weather Data Folder Route Weather Data Regional Weather Data Local Weather Data To the Forecasts and Observations / NOTAM section
Request Generated 09/29/2016 at 10:06:30 UTC . Weather information available at that time is displayed.

METAR/TAF

FREDERICTON INTL/NB    (show WxCam)

METAR CYFC 291000Z AUTO 01006KT 9SM CLR 06/05 A3049 RMK SLP325=
METAR CYFC 290900Z AUTO 36008KT 9SM SCT012 OVC038 07/06 A3049 RMK
SLP327=
METAR CYFC 290800Z AUTO 36009KT 9SM OVC038 08/06 A3049 RMK SLP325=

TAF CYFC 290538Z 2906/2918 02008KT P6SM BKN030
FM291400 03012KT P6SM FEW030
RMK FCST BASED ON AUTO OBS. NXT FCST BY 291200Z=
Your time UTC time
Weather data provided by Environment Canada and NAV CANADA